createdAt,value
2023-01-05T00:06:53.943Z,11.90
2023-01-05T00:17:16.078Z,11.79
2023-01-05T00:27:19.153Z,11.77
2023-01-05T00:37:23.771Z,11.72
2023-01-05T00:47:26.919Z,11.83
2023-01-05T00:57:31.344Z,11.89
2023-01-05T01:07:35.020Z,11.74
2023-01-05T01:17:42.071Z,11.76
2023-01-05T01:27:45.452Z,11.73
2023-01-05T01:37:49.698Z,11.77
2023-01-05T01:47:58.054Z,11.79
2023-01-05T01:58:07.488Z,11.70
2023-01-05T02:08:13.318Z,11.73
2023-01-05T02:18:33.743Z,11.88
2023-01-05T02:28:55.299Z,11.75
2023-01-05T02:39:06.104Z,11.80
2023-01-05T02:49:09.853Z,11.84
2023-01-05T02:59:20.766Z,11.68
2023-01-05T03:09:27.352Z,11.68
2023-01-05T03:19:39.954Z,11.72
2023-01-05T03:30:03.352Z,11.83
2023-01-05T03:40:16.662Z,11.79
2023-01-05T03:50:20.559Z,11.65
2023-01-05T04:00:25.569Z,11.74
2023-01-05T04:10:36.891Z,11.78
2023-01-05T04:20:42.255Z,11.68
2023-01-05T04:30:45.639Z,11.80
2023-01-05T04:40:50.645Z,11.68
2023-01-05T04:50:56.257Z,11.66
2023-01-05T05:01:07.168Z,11.59
2023-01-05T05:11:13.088Z,11.60
2023-01-05T05:21:17.530Z,11.60
2023-01-05T05:31:20.675Z,11.71
2023-01-05T05:41:25.575Z,11.74
2023-01-05T05:51:29.014Z,11.66
2023-01-05T06:01:33.379Z,11.68
2023-01-05T06:11:37.190Z,11.61
2023-01-05T06:21:41.449Z,11.58
2023-01-05T06:31:44.482Z,11.56
2023-01-05T06:41:48.967Z,11.55
2023-01-05T06:51:52.155Z,11.41
2023-01-05T07:01:56.802Z,11.41
2023-01-05T07:11:59.777Z,11.58
2023-01-05T07:22:04.274Z,11.58
2023-01-05T07:32:07.427Z,11.39
2023-01-05T07:42:13.322Z,11.35
2023-01-05T07:52:18.216Z,11.41
2023-01-05T08:02:22.773Z,11.32
2023-01-05T08:12:26.230Z,11.26
2023-01-05T08:22:30.494Z,11.22
2023-01-05T08:32:34.101Z,11.36
2023-01-05T08:42:38.407Z,11.39
2023-01-05T08:52:42.314Z,11.49
2023-01-05T09:02:46.965Z,11.39
2023-01-05T09:12:50.085Z,11.51
2023-01-05T09:22:55.309Z,11.55
2023-01-05T09:32:58.281Z,11.55
2023-01-05T09:43:02.936Z,11.67
2023-01-05T09:53:08.649Z,11.65
2023-01-05T10:03:53.527Z,11.65
2023-01-05T10:13:52.817Z,11.74
2023-01-05T10:24:10.587Z,11.82
2023-01-05T10:34:22.592Z,11.94
2023-01-05T10:44:50.922Z,12.06
2023-01-05T10:54:58.880Z,12.03
2023-01-05T11:05:07.023Z,11.98
2023-01-05T11:15:15.266Z,11.98
2023-01-05T11:25:28.149Z,11.81
2023-01-05T11:35:33.574Z,11.92
2023-01-05T11:45:42.468Z,11.87
2023-01-05T11:55:45.499Z,11.96
2023-01-05T12:05:52.735Z,11.97
2023-01-05T12:16:10.745Z,12.38
2023-01-05T12:26:27.208Z,12.21
2023-01-05T12:36:44.159Z,12.13
2023-01-05T12:47:04.163Z,12.38
2023-01-05T12:57:11.574Z,12.27
2023-01-05T13:07:22.170Z,12.15
2023-01-05T13:17:30.126Z,12.28
2023-01-05T13:27:34.695Z,12.12
2023-01-05T13:38:03.161Z,12.34
2023-01-05T13:48:33.878Z,12.26
2023-01-05T13:58:49.284Z,12.21
2023-01-05T14:08:58.289Z,12.19
2023-01-05T14:19:14.065Z,12.21
2023-01-05T14:30:10.214Z,12.11
2023-01-05T14:40:26.071Z,12.19
2023-01-05T14:50:34.244Z,12.12
2023-01-05T15:00:44.990Z,12.29
2023-01-05T15:11:19.337Z,12.21
2023-01-05T15:21:45.351Z,12.18
2023-01-05T15:31:54.705Z,12.10
2023-01-05T15:42:00.721Z,12.14
2023-01-05T15:52:05.738Z,11.86
2023-01-05T16:02:18.077Z,11.60
2023-01-05T16:12:25.869Z,11.59
2023-01-05T16:22:33.979Z,11.39
2023-01-05T16:32:41.855Z,11.55
2023-01-05T16:42:50.550Z,11.51
2023-01-05T16:52:57.594Z,11.39
2023-01-05T17:03:01.504Z,11.39
2023-01-05T17:13:09.087Z,11.25
2023-01-05T17:23:16.112Z,11.29
2023-01-05T17:33:21.162Z,11.20
2023-01-05T17:43:24.145Z,11.10
2023-01-05T17:53:28.420Z,11.17
2023-01-05T18:03:31.362Z,11.27
2023-01-05T18:13:36.143Z,11.35
2023-01-05T18:23:39.909Z,11.36
2023-01-05T18:33:44.302Z,11.42
2023-01-05T18:43:47.267Z,11.38
2023-01-05T18:53:51.705Z,11.31
2023-01-05T19:03:55.411Z,11.38
2023-01-05T19:14:02.086Z,11.30
2023-01-05T19:24:06.867Z,11.32
2023-01-05T19:34:12.921Z,11.35
2023-01-05T19:44:17.915Z,11.34
2023-01-05T19:54:24.046Z,11.27
2023-01-05T20:04:27.383Z,11.20
2023-01-05T20:14:34.219Z,11.54
2023-01-05T20:24:37.706Z,11.36
2023-01-05T20:34:44.122Z,11.33
2023-01-05T20:44:49.982Z,11.20
2023-01-05T20:54:56.114Z,11.32
2023-01-05T21:04:59.131Z,11.41
2023-01-05T21:15:03.373Z,11.45
2023-01-05T21:25:07.054Z,11.49
2023-01-05T21:35:11.889Z,11.30
2023-01-05T21:45:15.392Z,11.26
2023-01-05T21:55:37.335Z,11.22
2023-01-05T22:05:40.752Z,11.31
2023-01-05T22:15:45.831Z,11.28
2023-01-05T22:25:58.120Z,11.27
2023-01-05T22:36:03.442Z,11.31
2023-01-05T22:46:08.853Z,11.27
2023-01-05T22:56:15.877Z,11.50
2023-01-05T23:06:20.969Z,11.31
2023-01-05T23:16:26.302Z,11.29
2023-01-05T23:26:30.580Z,11.34
2023-01-05T23:36:34.855Z,11.36
2023-01-05T23:46:37.798Z,11.28
2023-01-05T23:56:42.312Z,11.33
